Tiempo atmosférico en la estación meteorológica de Guadalajara, Guadalajara (721 m.)



Fecha
DESCASC
Temp. máxima en grados centígrados (hora)
DESCASC
Temp. mínima en grados centígrados (hora)
DESCASC
Temp. media en grados centígrados
DESCASC
Racha de viento máxima en m/sg (hora)
DESCASC
Velocidad máxima media en intervalos de 10 minutos(hora)
DESCASC
Precipitaciones diarias en mm
DESCASC
Precipitaciones de 00:00 a 06:00 en mm
DESCASC
Precipitaciones de 06:00 a 12:00 en mm
DESCASC
Precipitaciones de 12:00 a 18:00 en mm
DESCASC
Precipitaciones de 18:00 a 24:00 en mm
DESCASC

Gráficas

Temp. máximas Temp. mínimas Temp. medias Precipitaciones Rachas de viento máximas Velocidades máximas media en intervalos de 10 minutos

Datos horarios

Fecha y hora oficial Temperatura (ºC) Velocidad del viento (km/h) Dirección del viento Racha (km/h) Dirección de racha Precipitación (mm) Presión (hPa) Tendencia (hPa) Humedad (%)
2019-12-07 23:00:00 5 6 Sur 9 Sur 0 940.5 1.1 95
2019-12-07 22:00:00 5.4 3 Sur 5 Sur 0 940.2 1.1 92
2019-12-07 21:00:00 6.3 4 Sur 8 Sur 0 939.8 1.3 89
2019-12-07 20:00:00 7 5 Sur 9 Sur 0 939.4 1.1 85
2019-12-07 19:00:00 8.2 4 Sur 7 Sur 0 939.1 1 79
2019-12-07 18:00:00 10.7 6 Sur 10 Sudoeste 0 938.5 0.4 71
2019-12-07 17:00:00 13.8 5 Oeste 10 Oeste 0 938.3 -0.2 57
2019-12-07 16:00:00 14.5 4 Sudoeste 9 Sudoeste 0 938.1 -1 54
2019-12-07 15:00:00 13 3 Noroeste 8 Noroeste 0 938.1 -1.8 60
2019-12-07 14:00:00 12.4 3 Noroeste 9 Nordeste 0 938.5 -1.5 63
2019-12-07 13:00:00 10.9 3 Nordeste 8 Noroeste 0 939.1 -0.7 73
2019-12-07 12:00:00 7.6 3 Norte 6 Noroeste 0 939.9 0.6 84
2019-12-07 11:00:00 5.5 2 Este 5 Nordeste 0 940 1.1 91
2019-12-07 10:00:00 3.2 3 Este 5 Norte 0 939.8 1 97
2019-12-07 09:00:00 1.3 4 Este 7 Este 0 939.3 0.6 97
2019-12-07 08:00:00 1.6 4 Este 8 Nordeste 0 938.9 0.2 97
2019-12-07 07:00:00 1.8 4 Norte 10 Sudeste 0 938.8 -0.2 97
2019-12-07 06:00:00 1.8 4 Norte 9 Norte 0 938.7 -0.1 97
2019-12-07 05:00:00 2.6 3 Noroeste 9 Sur 0 938.7 0 97
2019-12-07 04:00:00 2.8 4 Este 7 Norte 0 939 0 95
2019-12-07 03:00:00 3.1 3 Este 10 Nordeste 0 938.8 -0.5 94
2019-12-07 02:00:00 4.3 0 Calma 9 Noroeste 0 938.7 -0.3 94
2019-12-07 01:00:00 4.4 4 Sudeste 6 Sur 0 939 0.4 95
2019-12-07 00:00:00 4.4 5 Sudeste 7 Norte 0 939.3 1 92
2019-12-06 23:00:00 5.2 0 Calma 4 Sudeste 0 939 1 91
2019-12-06 22:00:00 6.3 0 Calma 3 Este 0 938.6 1.1 88
2019-12-06 21:00:00 7.6 3 Noroeste 8 Sur 0 938.3 1.3 85
2019-12-06 20:00:00 8 4 Sur 15 Sur 0 938 1.1 84
2019-12-06 19:00:00 8.2 3 Sur 7 Sur 0 937.5 0.6 78
2019-12-06 18:00:00 10.9 5 Sur 8 Sudoeste 0 937 0.2 69
2019-12-06 17:00:00 13.8 4 Oeste 10 Oeste 0 936.9 -0.5 54
2019-12-06 16:00:00 13.5 5 Oeste 9 Sudoeste 0 936.9 -1 56
2019-12-06 15:00:00 14.2 6 Sudoeste 11 Sudoeste 0 936.8 -1.8 56
2019-12-06 14:00:00 12.9 4 Noroeste 10 Norte 0 937.4 -1.8 62
2019-12-06 13:00:00 11.6 6 Noroeste 11 Noroeste 0 937.9 -0.9 68
2019-12-06 12:00:00 9.9 4 Noroeste 10 Nordeste 0 938.6 0.4 77
2019-12-06 11:00:00 7.9 4 Norte 9 Nordeste 0 939.2 1.3 83
2019-12-06 10:00:00 6.4 6 Norte 10 Norte 0 938.8 1.3 85
2019-12-06 09:00:00 6.2 5 Nordeste 12 Nordeste 0 938.2 1.3 87
2019-12-06 08:00:00 6.7 6 Nordeste 15 Nordeste 0 937.9 1.1 84
2019-12-06 07:00:00 6.3 9 Nordeste 17 Nordeste 0 937.5 0.6 86
2019-12-06 06:00:00 6.7 3 Nordeste 9 Norte 0 936.9 0 85
2019-12-06 05:00:00 7.1 4 Norte 13 Nordeste 0 936.8 -0.2 83
2019-12-06 04:00:00 7.6 5 Norte 14 Norte 0 936.9 -0.1 82
2019-12-06 03:00:00 7.7 5 Norte 13 Norte 0 936.9 -0.3 81
2019-12-06 02:00:00 7.2 3 Sur 10 Noroeste 0 937 0 84
2019-12-06 01:00:00 7.4 2 Nordeste 13 Nordeste 0 937 0.5 83
2019-12-06 00:00:00 7.2 4 Norte 12 Nordeste 0 937.2 0.9 83
2019-12-05 23:00:00 7.7 5 Nordeste 12 Norte 0 937 1.4 81
2019-12-05 22:00:00 7.4 6 Norte 14 Nordeste 0 936.5 1.5 82
2019-12-05 21:00:00 7.6 6 Norte 12 Norte 0 936.3 1.7 81
2019-12-05 20:00:00 8.3 8 Nordeste 25 Este 0 935.6 1.5 76
2019-12-05 19:00:00 8.6 10 Nordeste 23 Nordeste 0 935 1.4 76
2019-12-05 18:00:00 9.9 12 Nordeste 24 Nordeste 0 934.6 1.4 71
2019-12-05 17:00:00 11.5 14 Nordeste 31 Nordeste 0 934.1 0.7 66
2019-12-05 16:00:00 12.4 19 Nordeste 39 Este 0 933.6 -0.1 63
2019-12-05 15:00:00 12.6 9 Nordeste 28 Nordeste 0 933.2 -0.8 64
2019-12-05 14:00:00 11.5 14 Nordeste 31 Nordeste 0 933.4 -0.3 65
2019-12-05 13:00:00 10.6 13 Nordeste 34 Nordeste 0 933.7 0.8 68
2019-12-05 12:00:00 9.8 19 Nordeste 38 Nordeste 0 934 1.8 70
2019-12-05 11:00:00 9 10 Nordeste 29 Nordeste 0 933.7 2.3 73
2019-12-05 10:00:00 8.4 14 Nordeste 30 Nordeste 0 932.9 2 75
2019-12-05 09:00:00 7.4 12 Nordeste 30 Nordeste 0 932.2 2.3 78
2019-12-05 08:00:00 7.5 12 Nordeste 26 Nordeste 0 931.4 1.9 77
2019-12-05 07:00:00 7.6 11 Nordeste 22 Nordeste 0 930.9 1.6 76
2019-12-05 06:00:00 7.6 6 Nordeste 22 Nordeste 0 929.9 1 75
2019-12-05 05:00:00 7.6 11 Nordeste 22 Nordeste 0 929.5 1 74
2019-12-05 04:00:00 7.6 14 Nordeste 30 Nordeste 0 929.3 1.4 72
2019-12-05 03:00:00 7.8 16 Nordeste 31 Nordeste 0 928.9 1.5 72
2019-12-05 02:00:00 8.4 15 Nordeste 30 Nordeste 0 928.5 1.6 68
2019-12-05 01:00:00 8.5 17 Este 31 Nordeste 0 927.9 1.2 71
2019-12-05 00:00:00 8.6 22 Nordeste 33 Nordeste 0 927.4 1.2 71
2019-12-04 23:00:00 8.1 12 Nordeste 31 Este 0 926.9 1.1 76
2019-12-04 22:00:00 7.6 5 Nordeste 12 Norte 0 926.7 1.3 78
2019-12-04 21:00:00 8.2 5 Nordeste 30 Nordeste 0 926.2 0.8 76
2019-12-04 20:00:00 8.7 16 Nordeste 32 Nordeste 0 925.8 0.9 73
2019-12-04 19:00:00 9.3 21 Nordeste 41 Nordeste 0 925.4 1 71
2019-12-04 18:00:00 10.3 24 Nordeste 39 Nordeste 0 925.4 1.6 68
2019-12-04 17:00:00 10.1 22 Nordeste 40 Nordeste 0 924.9 1.1 70
2019-12-04 16:00:00 10.8 23 Nordeste 50 Nordeste 0 924.4 -0.1 68
2019-12-04 15:00:00 11.4 23 Nordeste 50 Nordeste 0 923.8 -1.6 67
2019-12-04 14:00:00 11.6 18 Nordeste 33 Nordeste 0 923.8 -2.2 70
2019-12-04 13:00:00 9 8 Norte 19 Norte 0 924.5 -1.8 81
2019-12-04 12:00:00 8.3 12 Nordeste 31 Este 0 925.4 -0.6 81
2019-12-04 11:00:00 7.3 9 Nordeste 18 Nordeste 0 926 -0.1 85
2019-12-04 10:00:00 6.8 5 Nordeste 22 Nordeste 0 926.3 -0.1 86
2019-12-04 09:00:00 5.4 4 Nordeste 13 Norte 0.2 926 -0.6 91
2019-12-04 08:00:00 5.3 7 Nordeste 16 Este 0 926.1 -1.1 90
2019-12-04 07:00:00 5 8 Nordeste 18 Nordeste 0.2 926.4 -1.5 92
2019-12-04 06:00:00 5.2 8 Nordeste 18 Nordeste 0.6 926.6 -1.7 92
2019-12-04 05:00:00 5 6 Nordeste 16 Nordeste 0 927.2 -1.8 91
2019-12-04 04:00:00 4.5 5 Norte 14 Nordeste 0.2 927.9 -1.8 93
2019-12-04 03:00:00 4.5 4 Norte 13 Norte 0.2 928.3 -1.9 92
2019-12-04 02:00:00 4.8 6 Nordeste 15 Norte 0 929 -1.2 89
2019-12-04 01:00:00 5.3 6 Norte 14 Nordeste 0 929.7 -0.2 83
2019-12-04 00:00:00 5.2 6 Nordeste 19 Nordeste 0.2 930.2 0.2 84
2019-12-03 23:00:00 5.4 6 Nordeste 14 Nordeste 0 930.2 0.4 79
2019-12-03 22:00:00 5.3 3 Nordeste 12 Nordeste 0 929.9 0.4 82
2019-12-03 21:00:00 5.5 4 Nordeste 13 Nordeste 0 930 0.6 80
2019-12-03 20:00:00 5.7 6 Norte 14 Noroeste 0 929.8 0.6 80
2019-12-03 19:00:00 5.9 6 Norte 17 Nordeste 0 929.5 0.4 78
2019-12-03 18:00:00 6.6 6 Norte 20 Nordeste 0 929.4 0.1 76
2019-12-03 17:00:00 7.6 6 Norte 26 Nordeste 0 929.2 -0.6 72
2019-12-03 16:00:00 8.7 10 Norte 24 Norte 0 929.1 -1.4 67
2019-12-03 15:00:00 8.7 9 Norte 25 Norte 0 929.3 -2.1 66
2019-12-03 14:00:00 8.9 8 Norte 20 Nordeste 0 929.8 -2.2 66
2019-12-03 13:00:00 8 9 Norte 22 Este 0 930.5 -1.6 68
2019-12-03 12:00:00 7 14 Nordeste 26 Nordeste 0 931.4 -0.7 70
2019-12-03 11:00:00 5.2 14 Nordeste 23 Nordeste 0 932 0 75
2019-12-03 10:00:00 3.8 10 Nordeste 21 Norte 0 932.1 0.1 81
2019-12-03 09:00:00 1.4 7 Norte 19 Norte 0 932.1 0 89
2019-12-03 08:00:00 1.5 5 Norte 16 Nordeste 0 932 -0.2 88
2019-12-03 07:00:00 2.4 10 Nordeste 24 Nordeste 0 932 -0.6 85
2019-12-03 06:00:00 3.1 11 Nordeste 22 Nordeste 0 932.1 -0.5 82
2019-12-03 05:00:00 3 10 Nordeste 19 Nordeste 0 932.2 -0.5 86
2019-12-03 04:00:00 3 6 Nordeste 16 Norte 0 932.6 -0.6 84
2019-12-03 03:00:00 3.4 13 Nordeste 23 Nordeste 0 932.6 -1 81
2019-12-03 02:00:00 3.7 9 Nordeste 21 Nordeste 0 932.7 -0.8 79
2019-12-03 01:00:00 3.6 7 Nordeste 20 Nordeste 0 933.2 -0.3 82
2019-12-03 00:00:00 4.3 7 Nordeste 29 Nordeste 0 933.6 -0.1 80
2019-12-02 23:00:00 4.9 15 Nordeste 25 Nordeste 0 933.5 0.3 79
2019-12-02 22:00:00 5.6 12 Nordeste 25 Nordeste 0 933.5 0.8 77
2019-12-02 21:00:00 5.5 12 Nordeste 22 Nordeste 0 933.7 1.7 77
2019-12-02 20:00:00 6.1 11 Nordeste 18 Nordeste 0 933.2 1.6 75
2019-12-02 19:00:00 7.2 9 Nordeste 22 Este 0 932.7 1.7 73
2019-12-02 18:00:00 8.7 13 Nordeste 31 Nordeste 0 932 1 66
2019-12-02 17:00:00 10.2 15 Nordeste 40 Nordeste 0 931.6 0.6 61
2019-12-02 16:00:00 10.7 21 Nordeste 49 Nordeste 0 931 -0.6 59
2019-12-02 15:00:00 10.4 21 Nordeste 41 Nordeste 0 931 -0.9 58
2019-12-02 14:00:00 11.1 23 Nordeste 41 Nordeste 0 931 -1 58
2019-12-02 13:00:00 10.5 26 Nordeste 47 Nordeste 0 931.6 0.2 59
2019-12-02 12:00:00 9.5 22 Nordeste 37 Nordeste 0 931.9 0.9 65
2019-12-02 11:00:00 7.7 12 Nordeste 22 Nordeste 0 932 1.6 75
2019-12-02 10:00:00 6.2 6 Nordeste 18 Norte 0 931.4 1.6 80
2019-12-02 09:00:00 5.4 9 Nordeste 21 Nordeste 0 931 1.5 81
2019-12-02 08:00:00 5.5 10 Nordeste 21 Nordeste 0 930.4 1.2 80
2019-12-02 07:00:00 5.4 14 Nordeste 23 Nordeste 0 929.8 0.9 81
2019-12-02 06:00:00 5.8 10 Nordeste 23 Nordeste 0 929.5 0.9 80
2019-12-02 05:00:00 6.4 5 Nordeste 23 Norte 0 929.2 0.8 80
2019-12-02 04:00:00 6.9 10 Nordeste 34 Norte 0 928.9 0.6 80
2019-12-02 03:00:00 7.2 10 Nordeste 26 Nordeste 0 928.6 0.6 80
2019-12-02 02:00:00 7.2 10 Nordeste 27 Nordeste 0 928.4 0.5 80
2019-12-02 01:00:00 7.6 11 Nordeste 21 Nordeste 0 928.3 0.6 82
2019-12-02 00:00:00 8.1 14 Nordeste 26 Este 0 928 0.6 78
2019-12-01 23:00:00 8 15 Este 29 Nordeste 0 927.9 0.6 83
2019-12-01 22:00:00 8.2 18 Este 27 Este 0.2 927.7 0.9 87
2019-12-01 21:00:00 8.5 12 Este 20 Este 0 927.4 0.9 85
2019-12-01 20:00:00 8.5 6 Nordeste 16 Este 0 927.3 1 87
2019-12-01 19:00:00 8.5 9 Este 16 Este 0 926.8 0.3 88
2019-12-01 18:00:00 8.9 4 Este 10 Sudeste 0 926.5 -0.2 88
2019-12-01 17:00:00 9.1 6 Sudeste 21 Sur 0 926.3 -1 83
2019-12-01 16:00:00 9.4 10 Sudeste 19 Sudeste 0 926.5 -1.1 84
2019-12-01 15:00:00 9.5 7 Sur 18 Sudoeste 0 926.7 -1.7 83
2019-12-01 14:00:00 8.9 7 Sur 17 Sur 0 927.3 -1.3 89
2019-12-01 13:00:00 8.7 8 Sur 18 Sur 0 927.6 -0.8 88
2019-12-01 12:00:00 8 4 Oeste 9 Sudoeste 0 928.4 0.2 91
2019-12-01 11:00:00 7.4 3 Noroeste 7 Noroeste 0 928.6 0.4 91
2019-12-01 10:00:00 6.8 4 Oeste 7 Noroeste 0 928.4 0.5 96
2019-12-01 09:00:00 5.7 3 Este 9 Sur 0 928.2 -0.1 99
2019-12-01 08:00:00 5.5 5 Sudoeste 9 Sudoeste 0 928.2 -0.2 98
2019-12-01 07:00:00 5.6 3 Nordeste 13 Noroeste 0 927.9 -1.1 98
2019-12-01 06:00:00 6.6 3 Sudoeste 7 Este 0 928.3 -1.3 97
2019-12-01 05:00:00 6.4 3 Este 6 Noroeste 0 928.4 -1.4 98
2019-12-01 04:00:00 6 4 Sur 7 Sudoeste 0 929 -1.2 97
2019-12-01 03:00:00 6.4 3 Oeste 6 Sudoeste 0 929.6 -0.6 97
2019-12-01 02:00:00 6.3 6 Sur 8 Sur 0 929.8 -1.2 95
2019-12-01 01:00:00 7.1 0 Calma 8 Sur 0 930.2 -1.7 94
2019-12-01 00:00:00 7.3 7 Sur 16 Sur 0.6 930.2 -1 93
2019-11-30 23:00:00 6.8 6 Nordeste 24 Nordeste 2 931 0.4 91
2019-11-30 22:00:00 7.8 10 Norte 33 Nordeste 2.4 931.9 1.2 83
2019-11-30 21:00:00 8.9 6 Nordeste 22 Nordeste 4.4 931.2 0.4 97
2019-11-30 20:00:00 11.9 9 Oeste 19 Sudoeste 0 930.6 -0.5 85
2019-11-30 19:00:00 12.4 12 Sudoeste 30 Sudoeste 0 930.7 -0.9 80
2019-11-30 18:00:00 12.8 15 Sudoeste 33 Sudoeste 0 930.8 -1.3 78
2019-11-30 17:00:00 13.2 17 Sudoeste 30 Sudoeste 0 931.1 -2.2 79
2019-11-30 16:00:00 13.2 14 Sudoeste 34 Sudoeste 0 931.6 -2.6 78
2019-11-30 15:00:00 13.1 18 Sudoeste 33 Sudoeste 0 932.1 -3.1 79
2019-11-30 14:00:00 12.9 16 Sudoeste 32 Sudoeste 0 933.3 -2.2 86
2019-11-30 13:00:00 12.7 18 Sudoeste 30 Sudoeste 0 934.2 -1.3 87
2019-11-30 12:00:00 12.4 16 Sudoeste 30 Sudoeste 0 935.2 -0.1 89
2019-11-30 11:00:00 12.1 18 Sudoeste 31 Sudoeste 0 935.5 0.2 92
2019-11-30 10:00:00 11.8 16 Sudoeste 31 Sudoeste 0 935.5 0.3 95
2019-11-30 09:00:00 11.5 11 Sudoeste 26 Sudoeste 1 935.3 -0.3 99
2019-11-30 08:00:00 11.7 12 Sudoeste 21 Sudoeste 0 935.3 -0.7 97
2019-11-30 07:00:00 11.8 13 Sudoeste 20 Sudoeste 0 935.2 -0.9 96
2019-11-30 06:00:00 11.9 9 Sudoeste 20 Sudoeste 0 935.6 -0.5 97
2019-11-30 05:00:00 11.9 10 Sudoeste 21 Sudoeste 0 936 -0.7 97
2019-11-30 04:00:00 11.8 11 Sudoeste 19 Sudoeste 0 936.1 -1.1 98
2019-11-30 03:00:00 11.8 10 Sudoeste 18 Sudoeste 0.2 936.1 -1 99
2019-11-30 02:00:00 11.8 7 Sudoeste 13 Sudoeste 0.6 936.7 -0.2 99
2019-11-30 01:00:00 12 5 Oeste 15 Sudoeste 0 937.2 0.4 96
2019-11-30 00:00:00 12.2 8 Sudoeste 14 Sur 0 937.1 0.3 94
2019-11-29 23:00:00 12.4 8 Sudoeste 15 Sudoeste 0 936.9 0.2 91
2019-11-29 22:00:00 12.5 9 Sudoeste 17 Sudoeste 0 936.8 0.4 92
2019-11-29 21:00:00 12.6 9 Sudoeste 17 Sudoeste 0 936.8 0.5 92
2019-11-29 20:00:00 12.8 10 Sudoeste 16 Sudoeste 0 936.7 0.8 92
2019-11-29 19:00:00 12.8 7 Sudoeste 21 Sudoeste 0 936.4 0.7 91
2019-11-29 18:00:00 13.2 10 Sudoeste 18 Sudoeste 0 936.3 0.7 90
2019-11-29 17:00:00 13.5 9 Sudoeste 19 Sudoeste 0 935.9 0 90
2019-11-29 16:00:00 13.8 11 Sudoeste 21 Sudoeste 0 935.7 -0.3 86
2019-11-29 15:00:00 14.1 10 Sudoeste 16 Sudoeste 0 935.6 -1.2 84
2019-11-29 14:00:00 13.5 8 Sudoeste 20 Oeste 0 935.9 -0.7 88
2019-11-29 13:00:00 13.4 9 Sudoeste 16 Sudoeste 0 936 0.2 87
2019-11-29 12:00:00 12.8 7 Sudoeste 19 Sudoeste 0 936.8 1.7 89
2019-11-29 11:00:00 12.3 10 Sudoeste 17 Sudoeste 0 936.6 2.1 91
2019-11-29 10:00:00 11.7 9 Sudoeste 21 Sudoeste 0 935.8 1.8 95
2019-11-29 09:00:00 11.5 13 Sudoeste 19 Sudoeste 0 935.1 1.4 95
2019-11-29 08:00:00 11.3 10 Sudoeste 21 Sudoeste 0 934.5 1.1 96
2019-11-29 07:00:00 11.2 13 Sudoeste 25 Sudoeste 0 934 0.8 95
2019-11-29 06:00:00 11.2 14 Sudoeste 25 Sudoeste 0 933.7 0.6 95
2019-11-29 05:00:00 11.1 14 Sudoeste 23 Sudoeste 0 933.4 0.7 94
2019-11-29 04:00:00 11 13 Sudoeste 22 Oeste 0 933.2 0.1 93
2019-11-29 03:00:00 11 13 Sudoeste 26 Sudoeste 0 933.1 0.2 91
2019-11-29 02:00:00 10.9 15 Sudoeste 28 Sudoeste 0 932.7 -0.1 91
2019-11-29 01:00:00 10.9 18 Sudoeste 33 Sudoeste 0 933.1 0.3 90
2019-11-29 00:00:00 10.8 18 Sudoeste 31 Sudoeste 0 932.9 0.1 90
2019-11-28 23:00:00 10.9 15 Sudoeste 30 Sudoeste 0 932.8 0.4 90
2019-11-28 22:00:00 10.8 15 Sudoeste 26 Sudoeste 0 932.8 0.8 90
2019-11-28 21:00:00 10.9 14 Sudoeste 27 Sudoeste 0 932.8 0.9 89
2019-11-28 20:00:00 10.9 17 Sudoeste 32 Oeste 0 932.4 0.6 91
2019-11-28 19:00:00 10.8 16 Sudoeste 28 Sudoeste 0 932 0.3 90
2019-11-28 18:00:00 10.9 15 Sudoeste 34 Sudoeste 0 931.9 -0.1 88
2019-11-28 17:00:00 11.1 16 Sudoeste 30 Sudoeste 0 931.8 -0.6 86
2019-11-28 16:00:00 11 16 Sudoeste 30 Sudoeste 0 931.7 -1.2 85
2019-11-28 15:00:00 10.9 18 Sudoeste 31 Sudoeste 0 932 -1.3 87
2019-11-28 14:00:00 10.3 14 Sudoeste 31 Oeste 0 932.4 -0.9 88
2019-11-28 13:00:00 10.3 15 Sudoeste 28 Sudoeste 0 932.9 -0.3 87
2019-11-28 12:00:00 10.2 13 Sudoeste 24 Sudoeste 0 933.3 0.6 88
2019-11-28 11:00:00 9.7 12 Sudoeste 28 Sudoeste 0 933.3 1.4 91
2019-11-28 10:00:00 9 12 Sudoeste 29 Sudoeste 0 933.2 1.8 92
2019-11-28 09:00:00 8.5 10 Sudoeste 27 Oeste 0 932.7 1.7 93
2019-11-28 08:00:00 8.4 15 Sudoeste 31 Sudoeste 0 931.9 1 93
2019-11-28 07:00:00 8.2 18 Sudoeste 31 Sudoeste 0 931.4 0.8 94
2019-11-28 06:00:00 8.2 14 Sudoeste 31 Sudoeste 0 931 0.9 94
2019-11-28 05:00:00 8.1 16 Sudoeste 30 Sudoeste 0 930.9 0.7 95
2019-11-28 04:00:00 8 12 Sudoeste 22 Oeste 0 930.6 0.2 93
2019-11-28 03:00:00 8.1 13 Sudoeste 21 Sudoeste 0 930.1 -0.4 93
2019-11-28 02:00:00 8.2 12 Sudoeste 27 Sudoeste 0 930.2 -0.1 92
2019-11-28 01:00:00 8.6 12 Sudoeste 26 Sudoeste 0 930.4 0.9 90
2019-11-28 00:00:00 9.3 15 Sudoeste 25 Sudoeste 0 930.5 0.9 88
2019-11-27 23:00:00 9.4 14 Sudoeste 25 Oeste 0 930.3 1.3 87
2019-11-27 22:00:00 9.6 13 Sudoeste 24 Sudoeste 0 929.5 0.5 86
2019-11-27 21:00:00 10.2 13 Sudoeste 24 Sudoeste 0 929.6 1 84
2019-11-27 20:00:00 10.5 14 Sudoeste 26 Sudoeste 0 929 0.9 82
2019-11-27 19:00:00 10.6 10 Sudoeste 19 Sudoeste 0 929 1.1 80
2019-11-27 18:00:00 10.7 10 Sudoeste 30 Sudoeste 0 928.6 0.7 77
2019-11-27 17:00:00 11.7 14 Sudoeste 34 Sudoeste 0 928.1 -0.3 71
2019-11-27 16:00:00 12.1 20 Sudoeste 31 Sudoeste 0 927.9 -0.9 69
2019-11-27 15:00:00 12.2 15 Sudoeste 31 Sudoeste 0 927.9 -1.1 69
2019-11-27 14:00:00 12.1 16 Sudoeste 28 Oeste 0 928.4 -0.7 73
2019-11-27 06:00:00 10.5 15 Sudoeste 28 Sudoeste 0 926.4 0.9 96
2019-11-27 05:00:00 10.7 17 Sudoeste 32 Sudoeste 0 925.8 0.3 97
2019-11-27 04:00:00 11.2 15 Sudoeste 37 Oeste 0 925.8 -0.2 94
2019-11-27 03:00:00 11.4 19 Sudoeste 31 Oeste 0 925.5 0.1 92
2019-11-27 02:00:00 11.5 14 Sudoeste 35 Sudoeste 0 925.5 0.1 91
2019-11-27 01:00:00 11.4 17 Oeste 39 Sudoeste 0 926 0.2 91
2019-11-27 00:00:00 11.7 24 Sudoeste 46 Sudoeste 0 925.4 -0.4 89
2019-11-26 23:00:00 12.1 22 Sudoeste 49 Sudoeste 0 925.4 -0.1 91
2019-11-26 22:00:00 12.7 24 Sudoeste 45 Sudoeste 0 925.8 0 92
2019-11-26 21:00:00 12.4 17 Sudoeste 44 Sudoeste 0 925.8 -0.8 94
2019-11-26 20:00:00 12.7 17 Sudoeste 34 Sudoeste 0 925.5 -1.2 91
2019-11-26 19:00:00 12.7 15 Sudoeste 25 Sudoeste 0 925.8 -1.5 92
2019-11-26 18:00:00 12.7 17 Sudoeste 35 Sudoeste 0.2 926.6 -1.1 90
2019-11-26 17:00:00 12.9 19 Sudoeste 36 Sudoeste 0.2 926.7 -2.2 90
2019-11-26 16:00:00 13 15 Sudoeste 40 Sudoeste 0 927.3 -2.3 87
2019-11-26 15:00:00 13.1 15 Sudoeste 37 Sudoeste 0 927.7 -2.9 88
2019-11-26 14:00:00 11.6 12 Sudoeste 23 Sudoeste 0 928.9 -2.1 96
2019-11-26 13:00:00 11.2 8 Sudoeste 17 Oeste 0.2 929.6 -1.3 98
2019-11-26 12:00:00 10.7 9 Sudoeste 23 Sudoeste 0 930.6 -0.4 98
2019-11-26 11:00:00 10.6 11 Sudoeste 19 Sudoeste 0 931 0.5 96
2019-11-26 10:00:00 10.5 13 Sudoeste 21 Sur 0 930.9 0.7 94
2019-11-26 09:00:00 10.4 11 Sudoeste 19 Sudoeste 0 931 0.4 93
2019-11-26 08:00:00 10.2 7 Sudoeste 11 Sudoeste 0 930.5 -0.6 96
2019-11-26 07:00:00 9.9 5 Sudoeste 10 Oeste 0 930.2 -1.1 99
2019-11-26 06:00:00 9.9 3 Sudeste 7 Noroeste 0 930.6 -0.7 99
2019-11-26 05:00:00 10.1 4 Oeste 12 Sudoeste 0 931.1 -0.3 97
2019-11-26 04:00:00 9.9 5 Sudoeste 13 Oeste 0 931.3 -0.6 94
2019-11-26 03:00:00 9.2 10 Sur 16 Sur 0 931.3 -0.3 97
2019-11-26 02:00:00 9 8 Sur 13 Sudoeste 0 931.4 -0.3 92
2019-11-26 01:00:00 9.9 9 Sudoeste 15 Sudoeste 0 931.9 0.1 92
2019-11-26 00:00:00 10.5 9 Sudoeste 19 Sudoeste 0 931.6 0.1 89
2019-11-25 23:00:00 10.3 10 Sur 15 Sur 0 931.7 0.5 91
2019-11-25 22:00:00 11.3 9 Sudoeste 15 Sudoeste 0 931.8 0.6 89
2019-11-25 21:00:00 11.6 9 Sudoeste 16 Sudoeste 0 931.5 1.1 86
2019-11-25 20:00:00 12.3 11 Sudoeste 18 Sudoeste 0 931.2 0.9 83
2019-11-25 19:00:00 12.7 8 Sudoeste 16 Sudoeste 0 931.2 1.3 80
2019-11-25 18:00:00 13.2 11 Sudoeste 21 Sudoeste 0 930.4 0.7 80
2019-11-25 17:00:00 14.1 11 Sudoeste 26 Sudoeste 0 930.3 0.4 77
2019-11-25 16:00:00 15 11 Sudoeste 25 Oeste 0 929.9 -0.4 72
2019-11-25 15:00:00 15.8 13 Sudoeste 25 Oeste 0 929.7 -1.1 67
2019-11-25 14:00:00 15.2 10 Oeste 21 Sudoeste 0 929.9 -0.8 69
2019-11-25 13:00:00 14.8 6 Oeste 18 Oeste 0 930.3 -0.3 74
2019-11-25 12:00:00 12.8 8 Sudoeste 24 Oeste 0 930.8 0.5 82
2019-11-25 11:00:00 10.5 14 Sudoeste 27 Sudoeste 0 930.7 0.7 92
2019-11-25 10:00:00 9.4 12 Sudoeste 28 Sudoeste 0 930.6 0.9 98
2019-11-25 09:00:00 9.1 14 Sudoeste 30 Sudoeste 0 930.3 0.8 98
2019-11-25 08:00:00 8.9 12 Sudoeste 30 Oeste 0 930 0.5 99
2019-11-25 07:00:00 8.7 14 Sudoeste 28 Sudoeste 0 929.7 0.1 99
2019-11-25 06:00:00 8.7 15 Sudoeste 27 Sudoeste 0.2 929.5 -0.2 98
2019-11-25 05:00:00 8.7 14 Sudoeste 35 Oeste 0 929.5 0.1 97
2019-11-25 04:00:00 8.5 17 Sudoeste 34 Sudoeste 0.2 929.6 -0.7 96
2019-11-25 03:00:00 8.2 17 Sudoeste 33 Sudoeste 0.8 929.7 -0.7 97
2019-11-25 02:00:00 8.5 16 Sudoeste 32 Sudoeste 0.2 929.4 -1.6 94
2019-11-25 01:00:00 8.7 13 Sudoeste 30 Sudoeste 0 930.3 -0.2 91
2019-11-25 00:00:00 8.3 14 Sudoeste 27 Oeste 0 930.4 -0.1 91
2019-11-24 23:00:00 8.2 14 Sudoeste 24 Oeste 0 931 0.5 84
2019-11-24 22:00:00 7.7 11 Sur 23 Sur 0 930.5 0.1 76
2019-11-24 21:00:00 7.5 8 Sur 19 Sur 0 930.5 0.6 72
2019-11-24 20:00:00 8.1 13 Sudoeste 21 Sudoeste 0 930.5 0.6 69
2019-11-24 19:00:00 8.4 10 Sudoeste 21 Sudoeste 0 930.4 1 68
2019-11-24 18:00:00 9.2 13 Sudoeste 23 Sudoeste 0 929.9 0 65
2019-11-24 17:00:00 11.4 7 Oeste 21 Sudoeste 0 929.9 -0.7 50
2019-11-24 16:00:00 12.3 7 Sudoeste 18 Oeste 0 929.4 -1.5 48
2019-11-24 15:00:00 10.8 8 Oeste 17 Sudoeste 0 929.9 -1.6 54
2019-11-24 14:00:00 10.3 11 Oeste 18 Sudoeste 0 930.6 -0.5 54
2019-11-24 13:00:00 10 6 Oeste 18 Oeste 0 930.9 -0.3 58
2019-11-24 12:00:00 8.7 5 Oeste 15 Sudoeste 0 931.5 1 63
2019-11-24 11:00:00 8.1 3 Sur 9 Sur 0 931.1 1.3 67
2019-11-24 10:00:00 6.7 5 Noroeste 14 Noroeste 0 931.2 2.4 73
2019-11-24 09:00:00 5.3 7 Oeste 11 Oeste 0 930.5 2.2 79
2019-11-24 08:00:00 6.1 3 Sur 18 Nordeste 0 929.8 1.6 72
2019-11-24 07:00:00 6.5 11 Este 18 Este 0 928.8 1.4 70
2019-11-24 06:00:00 7.2 5 Noroeste 24 Noroeste 0 928.3 1 64
2019-11-24 05:00:00 6.5 4 Sur 25 Noroeste 0 928.2 0.8 70
2019-11-24 04:00:00 7.6 15 Noroeste 27 Noroeste 0 927.4 0.4 65
2019-11-24 03:00:00 7.5 3 Nordeste 15 Noroeste 0 927.3 0.5 67
2019-11-24 02:00:00 7.7 8 Sudoeste 18 Oeste 0 927.4 1.4 65
2019-11-24 01:00:00 7.7 9 Sudoeste 20 Sudoeste 0 927 1.3 68
2019-11-24 00:00:00 7.8 8 Sudoeste 15 Oeste 0 926.8 1.6 67
2019-11-23 23:00:00 8 12 Sudoeste 22 Sudoeste 0 926 1.3 66
2019-11-23 22:00:00 8.2 9 Oeste 14 Sudoeste 0 925.7 1.8 65
2019-11-23 21:00:00 8.4 5 Oeste 22 Sudoeste 0 925.2 2.4 64
2019-11-23 20:00:00 8.1 6 Oeste 25 Noroeste 0 924.7 2.8 65
2019-11-23 19:00:00 8.6 3 Sur 18 Noroeste 0 923.9 2.7 61
2019-11-23 18:00:00 9.7 6 Noroeste 29 Noroeste 0 922.8 2.2 55
2019-11-23 17:00:00 10.8 7 Oeste 26 Norte 0 921.9 1.9 51
2019-11-23 16:00:00 10.8 10 Oeste 24 Noroeste 0 921.2 1.7 48
2019-11-23 15:00:00 11 8 Noroeste 36 Noroeste 0 920.6 1.4 46
2019-11-23 14:00:00 11 17 Noroeste 38 Noroeste 0 920 1.6 51
2019-11-23 13:00:00 10.5 9 Noroeste 31 Noroeste 0 919.5 2.4 53
2019-11-23 12:00:00 10.3 9 Oeste 28 Noroeste 0 919.2 4 52
2019-11-23 11:00:00 8.1 10 Noroeste 27 Oeste 0 918.4 4.7 62
2019-11-23 10:00:00 7.4 12 Sudoeste 36 Noroeste 0 917.1 4.7 70
2019-11-23 09:00:00 7.6 13 Noroeste 38 Sudoeste 0 915.2 3.4 66
2019-11-23 08:00:00 7.2 12 Oeste 28 Oeste 0 913.7 2.7 73
2019-11-23 07:00:00 6.5 12 Oeste 32 Sudoeste 0.2 912.4 2.3 83
2019-11-23 06:00:00 6.4 15 Oeste 39 Oeste 0 911.8 1.8 83
2019-11-23 05:00:00 7.5 16 Oeste 39 Sudoeste 0 911 1.3 73
2019-11-23 04:00:00 7.3 18 Oeste 36 Oeste 0 910.1 -0.1 72
2019-11-23 03:00:00 7.8 13 Oeste 32 Sudoeste 0 910 -0.2 85
2019-11-23 02:00:00 8.1 19 Sudoeste 34 Sudoeste 0 909.7 -0.7 93
2019-11-23 01:00:00 8.2 19 Sudoeste 36 Oeste 0.2 910.2 0 93
2019-11-23 00:00:00 8.6 20 Sudoeste 41 Sudoeste 0 910.2 0.5 90
2019-11-22 23:00:00 9.3 21 Sudoeste 34 Sudoeste 0 910.4 1.1 87
2019-11-22 22:00:00 10 17 Sudoeste 31 Sudoeste 0 910.2 1.4 91
2019-11-22 21:00:00 10.7 19 Sudoeste 43 Sudoeste 0 909.7 0.7 89
2019-11-22 20:00:00 11 21 Sudoeste 39 Oeste 0 909.3 0.2 93
2019-11-22 19:00:00 10.8 17 Sudoeste 32 Sudoeste 0.2 908.8 -0.4 95
2019-11-22 18:00:00 11.2 18 Sudoeste 39 Oeste 0 909 -1 92
2019-11-22 17:00:00 11.8 24 Sudoeste 51 Sur 0 909.1 -2.3 89
2019-11-22 16:00:00 11.7 26 Sur 53 Sur 0.2 909.2 -3.5 90
2019-11-22 15:00:00 10.8 23 Sur 49 Sur -- 910 -4.8 93
2019-11-22 14:00:00 9.9 29 Sur 62 Sur -- 911.4 -4.6 93
2019-11-22 13:00:00 10.1 27 Sur 51 Sur -- 912.7 -- 91
2019-11-22 12:00:00 9.8 31 Sur 49 Sur -- 914.8 -3.3 89
2019-11-22 11:00:00 9.4 28 Sur 45 Sur -- 916 -2.6 91
2019-11-22 10:00:00 -- -- -- -- -- -- -- -- --
2019-11-22 09:00:00 8.2 19 Sur 35 Sur -- 918.1 -1.8 94
2019-11-22 08:00:00 7.9 16 Sur 31 Sur -- 918.6 -1.8 94
2019-11-22 07:00:00 7.6 17 Sur 30 Sudoeste -- 919.1 -2 95
2019-11-22 06:00:00 7.5 14 Sur 31 Sur -- 919.9 -1.7 93
2019-11-22 05:00:00 7 19 Sur 30 Sur -- 920.4 -1.7 95
2019-11-22 04:00:00 7 15 Sur 28 Sudeste -- 921.1 -1.8 95
2019-11-22 03:00:00 7.2 13 Sur 21 Sur -- 921.6 -1.7 93
2019-11-22 02:00:00 7.2 6 Sur 17 Sur -- 922.1 -1.8 92
2019-11-22 01:00:00 7.5 7 Sur 15 Sur -- 922.9 -1.3 91
2019-11-22 00:00:00 7.5 8 Sur 14 Sudoeste -- 923.3 -0.2 90
2019-11-21 23:00:00 7.6 5 Sudoeste 17 Sudoeste -- 923.9 0.2 91
2019-11-21 22:00:00 7.9 10 Sudoeste 18 Sudoeste -- 924.2 0.7 91
2019-11-21 21:00:00 8.1 6 Sudoeste 17 Sudoeste -- 923.5 0.2 89
2019-11-21 20:00:00 8.1 7 Sudoeste 11 Sudoeste -- 923.7 0.4 90
2019-11-21 19:00:00 8.2 5 Sudoeste 13 Oeste -- 923.5 0.3 91
2019-11-21 18:00:00 8.6 6 Sudoeste 10 Sudoeste -- 923.3 0.1 87
2019-11-21 17:00:00 8.8 6 Sudoeste 21 Sudoeste -- 923.3 -0.2 85
2019-11-21 16:00:00 8.9 13 Sudoeste 22 Sudoeste -- 923.2 -0.7 84
2019-11-21 15:00:00 8.6 5 Sudoeste 18 Oeste -- 923.2 -1.4 90
2019-11-21 14:00:00 8.6 12 Oeste 22 Sudoeste -- 923.5 -1.1 87
2019-11-21 13:00:00 7.8 10 Sudoeste 18 Sudoeste -- 923.9 -0.4 91
2019-11-21 12:00:00 7.8 9 Sudoeste 19 Sudoeste -- 924.6 0.4 90
2019-11-21 11:00:00 7.4 9 Sudoeste 18 Sudoeste -- 924.6 0.7 94
2019-11-21 10:00:00 6.7 10 Sudoeste 21 Sudoeste -- 924.3 0.6 95
2019-11-21 09:00:00 6.2 6 Sudoeste 11 Sudoeste -- 924.2 0.6 96
2019-11-21 08:00:00 -- -- -- -- -- -- -- -- --
2019-11-21 07:00:00 -- -- -- -- -- -- -- -- --
2019-11-21 06:00:00 -- -- -- -- -- -- -- -- --
2019-11-21 05:00:00 -- -- -- -- -- -- -- -- --
2019-11-21 04:00:00 -- -- -- -- -- -- -- -- --
2019-11-21 03:00:00 -- -- -- -- -- -- -- -- --
2019-11-21 02:00:00 -- -- -- -- -- -- -- -- --
2019-11-21 01:00:00 -- -- -- -- -- -- -- -- --
2019-11-21 00:00:00 -- -- -- -- -- -- -- -- --
2019-11-20 23:00:00 -- -- -- -- -- -- -- -- --
2019-11-20 22:00:00 5.1 2 Sudoeste 6 Sudoeste -- 924.7 0.4 94
2019-11-20 21:00:00 5.1 5 Sudoeste 10 Sudoeste -- 924.7 0.4 94
2019-11-20 20:00:00 5.3 6 Oeste 15 Oeste -- 924.7 0.4 94
2019-11-20 19:00:00 5.8 6 Sudoeste 10 Oeste -- 924.3 -0.1 93
2019-11-20 18:00:00 6.2 8 Oeste 22 Sudoeste -- 924.3 -0.3 89
2019-11-20 17:00:00 6.8 9 Sur 22 Sur -- 924.3 -0.8 80
2019-11-20 16:00:00 7.5 5 Sur 15 Oeste -- 924.4 -1.6 84
2019-11-20 15:00:00 8.3 10 Sudoeste 13 Sudoeste -- 924.6 -2.2 72
2019-11-20 14:00:00 8.9 2 Oeste 8 Oeste 0 925.1 -2.3 69
2019-11-20 13:00:00 8 4 Noroeste 8 Oeste 0 926 -1.6 70
2019-11-20 12:00:00 6.3 2 Noroeste 7 Noroeste 0 926.8 -0.8 76
2019-11-20 11:00:00 4.7 4 Norte 7 Norte 0 927.4 0.1 81
2019-11-20 10:00:00 3.3 4 Nordeste 6 Nordeste 0 927.6 0.1 87
2019-11-20 09:00:00 1.1 3 Nordeste 6 Este 0 927.6 0 94
2019-11-20 08:00:00 0.6 3 Nordeste 7 Este 0 927.3 -0.7 93
2019-11-20 07:00:00 1 3 Norte 8 Noroeste 0 927.5 -0.8 94
2019-11-20 06:00:00 0.9 3 Este 9 Noroeste 0 927.6 -1.1 92
2019-11-20 05:00:00 0.7 4 Nordeste 5 Este 0 928 -1 91
2019-11-20 04:00:00 2.3 2 Sudoeste 6 Sur 0 928.3 -1.2 89
2019-11-20 03:00:00 2.2 3 Sudoeste 6 Sur 0 928.7 -1 89
2019-11-20 02:00:00 2.7 4 Sur 10 Sur 0 929 -1.4 86
2019-11-20 01:00:00 3.6 5 Sur 12 Sudeste 0 929.5 -0.9 82
2019-11-20 00:00:00 4 6 Sur 15 Sur 0 929.7 -0.7 81
2019-11-19 23:00:00 4.4 5 Sur 10 Sur 0 930.4 0 79
2019-11-19 22:00:00 4.4 6 Sur 9 Sur 0 930.4 0.1 80
2019-11-19 21:00:00 4.8 8 Sur 12 Sur 0 930.4 0.1 79
2019-11-19 20:00:00 5 6 Sur 9 Sur 0 930.4 0.1 77
2019-11-19 19:00:00 5.7 6 Sur 10 Sur 0 930.3 -0.2 74
2019-11-19 18:00:00 7.3 6 Sur 14 Sudoeste 0 930.3 -0.3 68
2019-11-19 17:00:00 8.5 5 Sudoeste 20 Sudoeste 0 930.3 -1 62
2019-11-19 16:00:00 9.2 12 Oeste 22 Oeste 0 930.5 -1.5 57
2019-11-19 15:00:00 9.8 12 Oeste 22 Sudoeste 0 930.6 -2.3 49
2019-11-19 14:00:00 10.1 9 Sudoeste 18 Sudoeste 0 931.3 -2.1 53
2019-11-19 13:00:00 9.8 5 Oeste 10 Oeste 0 932 -1.6 56
2019-11-19 12:00:00 7.6 3 Sur 10 Sudoeste 0 932.9 -0.4 63
2019-11-19 11:00:00 5.2 4 Noroeste 7 Noroeste 0 933.4 0.7 71
2019-11-19 10:00:00 3.2 2 Este 6 Este 0 933.6 1.1 77
2019-11-19 09:00:00 0 2 Noroeste 5 Sudoeste 0 933.3 0.9 91
2019-11-19 08:00:00 -0.9 3 Este 5 Este 0 932.7 0 91
2019-11-19 07:00:00 -0.9 3 Sudoeste 10 Sudoeste 0 932.5 0 91
2019-11-19 06:00:00 -1.1 3 Sur 9 Nordeste 0 932.4 -0.3 91
2019-11-19 05:00:00 -0.5 5 Sudoeste 9 Este 0 932.7 0 90
2019-11-19 04:00:00 -0.2 5 Este 8 Este 0 932.5 -0.6 89
2019-11-19 03:00:00 0.5 4 Sudeste 7 Oeste 0 932.7 -0.7 86
2019-11-19 02:00:00 0.8 2 Sudoeste 8 Nordeste 0 932.7 -0.6 88
2019-11-19 01:00:00 1 2 Nordeste 8 Sudeste 0 933.1 0.2 87
2019-11-19 00:00:00 1.5 7 Sur 10 Sur 0 933.4 1.1 86
2019-11-18 23:00:00 1.8 6 Sur 10 Sudoeste 0 933.3 1.5 84
2019-11-18 22:00:00 2.4 5 Sudeste 8 Sudeste 0 932.9 1.2 82
2019-11-18 21:00:00 3.4 3 Este 12 Sur 0 932.3 1 75
2019-11-18 20:00:00 5.5 3 Nordeste 18 Norte 0 931.8 0.9 65
2019-11-18 19:00:00 6.9 7 Norte 24 Noroeste 0 931.7 1.1 58
2019-11-18 18:00:00 7.6 5 Noroeste 28 Norte 0 931.3 1.2 57
2019-11-18 17:00:00 8.9 9 Norte 33 Norte 0 930.9 1.3 53
2019-11-18 16:00:00 9.2 11 Nordeste 30 Nordeste 0 930.6 1 51
2019-11-18 15:00:00 10.5 12 Nordeste 30 Norte 0 930.1 0.2 47
2019-11-18 14:00:00 10.3 12 Norte 30 Norte 0 929.6 -0.1 50
2019-11-18 13:00:00 9.8 12 Norte 24 Nordeste 0 929.6 0.2 51
2019-11-18 12:00:00 8.6 6 Norte 19 Norte 0 929.9 1.4 55
2019-11-18 11:00:00 6.9 9 Nordeste 15 Nordeste 0 929.7 1.9 70
2019-11-18 10:00:00 5.4 3 Sur 10 Sudoeste 0 929.4 1.8 78
2019-11-18 09:00:00 1.9 3 Este 10 Sudoeste 0 928.5 1.6 91
2019-11-18 08:00:00 1 3 Sudeste 6 Sudoeste 0 927.8 1.1 94
2019-11-18 07:00:00 1.6 2 Este 6 Este 0 927.6 1.1 92
2019-11-18 06:00:00 1.8 3 Este 7 Sudeste 0 926.9 0.8 91
2019-11-18 05:00:00 3.1 3 Nordeste 11 Norte 0 926.7 0.6 86
2019-11-18 04:00:00 3.6 4 Noroeste 7 Noroeste 0 926.5 0.4 85
2019-11-18 03:00:00 5.2 5 Norte 21 Norte 0 926.1 0.5 75
2019-11-18 02:00:00 5.4 5 Norte 23 Noroeste 0 926.1 1 73
2019-11-18 01:00:00 6 5 Norte 24 Noroeste 0 926.1 1.1 71
2019-11-18 00:00:00 6.1 7 Norte 31 Noroeste 0 925.6 0.4 78
2019-11-17 23:00:00 5 3 Noroeste 14 Sur 0 925.1 -0.4 96
2019-11-17 22:00:00 5.8 2 Sudeste 9 Sudoeste 0 925 -0.1 95
2019-11-17 21:00:00 6.9 5 Sudoeste 21 Sudoeste 0 925.2 -0.8 96
2019-11-17 20:00:00 6.8 9 Sudoeste 24 Sudoeste 0 925.5 -0.7 97
2019-11-17 19:00:00 6.5 15 Sudoeste 23 Sudoeste 0 925.1 -1.5 96
2019-11-17 18:00:00 6.3 12 Sudoeste 22 Sudoeste 0 926 -1.2 95
2019-11-17 17:00:00 6.2 14 Sudoeste 29 Sudoeste 0 926.2 -1.4 95
2019-11-17 16:00:00 6.4 16 Sudoeste 30 Sudoeste 0 926.6 -1.9 94
2019-11-17 15:00:00 6.4 14 Sudoeste 29 Oeste 0 927.2 -2 93
2019-11-17 14:00:00 6.9 16 Oeste 26 Oeste 0 927.6 -2.3 80
2019-11-17 13:00:00 6.8 16 Sudoeste 27 Sudoeste 0 928.5 -1.4 68
2019-11-17 12:00:00 6.2 15 Sudoeste 24 Sudoeste 0 929.2 -0.7 72
2019-11-17 11:00:00 5.4 13 Sudoeste 19 Oeste 0 929.9 0.3 70
2019-11-17 10:00:00 4.3 5 Sudoeste 15 Oeste 0 929.9 0 73
2019-11-17 09:00:00 2.9 6 Sudoeste 11 Sudoeste 0 929.9 -0.2 79
2019-11-17 08:00:00 1.7 4 Sur 10 Sur 0 929.6 -0.5 82
2019-11-17 07:00:00 1.6 4 Oeste 7 Sudoeste 0 929.9 -0.4 83
2019-11-17 06:00:00 1.4 0 Calma 5 Sur 0 930.1 -0.3 82
2019-11-17 05:00:00 2 4 Sudoeste 10 Sudoeste 0 930.1 -0.4 77
2019-11-17 04:00:00 0.9 5 Sur 11 Sur 0 930.3 -0.7 82
2019-11-17 03:00:00 0.6 7 Sur 9 Sur 0 930.4 -0.8 82
2019-11-17 02:00:00 0.7 8 Sur 10 Sur 0 930.5 -0.7 81
2019-11-17 01:00:00 1.6 6 Sur 10 Sur 0 931 0.2 77
2019-11-17 00:00:00 2.5 6 Sur 9 Oeste 0 931.2 0.3 74
2019-11-16 23:00:00 2.7 5 Sur 13 Sudoeste 0 931.2 0.3 76
2019-11-16 22:00:00 3 4 Sur 7 Sur 0 930.8 0.4 69
2019-11-16 21:00:00 4.3 6 Sur 20 Noroeste 0 930.9 0.8 64
2019-11-16 20:00:00 4.8 4 Oeste 12 Noroeste 0 930.9 0.8 63
2019-11-16 19:00:00 6.7 4 Norte 15 Norte 0 930.4 0.8 54
2019-11-16 18:00:00 7.6 5 Noroeste 19 Norte 0 930.1 0.8 51
2019-11-16 17:00:00 8.4 13 Noroeste 28 Noroeste 0 930.1 0.8 47
2019-11-16 16:00:00 10.1 6 Oeste 19 Noroeste 0 929.6 0.2 45
2019-11-16 15:00:00 9.8 10 Noroeste 21 Noroeste 0 929.3 -0.5 47
2019-11-16 14:00:00 9.7 8 Oeste 22 Sudoeste 0 929.3 -0.5 51
2019-11-16 13:00:00 9.5 8 Sudoeste 17 Sur 0 929.4 0.2 53
2019-11-16 12:00:00 7.2 4 Norte 9 Norte 0 929.8 1.4 58
2019-11-16 11:00:00 5.2 5 Norte 10 Nordeste 0 929.8 1.8 62
2019-11-16 10:00:00 4.5 4 Norte 8 Norte 0 929.2 2.1 67
2019-11-16 09:00:00 1.2 4 Sudeste 6 Sudoeste 0 928.4 2.2 86
2019-11-16 08:00:00 0.2 2 Este 12 Sur 0 928 2.3 88
2019-11-16 07:00:00 0.6 5 Sur 10 Sur 0 927.1 2.1 86
2019-11-16 06:00:00 1.8 4 Noroeste 10 Norte 0 926.2 1.8 83
2019-11-16 05:00:00 2.4 5 Nordeste 15 Norte 0 925.7 1.6 79
2019-11-16 04:00:00 3 6 Nordeste 14 Este 0 925 1.2 77
2019-11-16 03:00:00 3.4 4 Este 12 Norte 0 924.4 0.8 75
2019-11-16 02:00:00 3.7 3 Norte 15 Norte 0 924.1 1 76
2019-11-16 01:00:00 4.8 9 Noroeste 31 Noroeste 0 923.8 1.3 69
2019-11-16 00:00:00 5.5 9 Noroeste 20 Norte 0 923.6 1.8 66
2019-11-15 23:00:00 5.9 4 Noroeste 13 Oeste 0 923.1 1.6 67
2019-11-15 22:00:00 6.2 5 Oeste 13 Oeste 0 922.5 1.5 64
2019-11-15 21:00:00 6.2 6 Sudoeste 14 Sudoeste 0 921.8 1.1 63
2019-11-15 20:00:00 6.4 8 Sudoeste 13 Sudoeste 0 921.5 1 63
2019-11-15 19:00:00 7 4 Oeste 16 Oeste 0 921 0.8 58
2019-11-15 18:00:00 7.4 6 Oeste 17 Noroeste 0 920.7 0.7 55
2019-11-15 17:00:00 7.8 8 Noroeste 19 Noroeste 0 920.5 0.3 53
2019-11-15 16:00:00 8 9 Noroeste 26 Noroeste 0 920.2 0.3 53
2019-11-15 15:00:00 8.1 15 Noroeste 30 Noroeste 0 920 -0.6 52
2019-11-15 14:00:00 8.1 14 Norte 26 Norte 0 920.2 -0.5 57
2019-11-15 13:00:00 8.7 11 Noroeste 22 Noroeste 0 919.9 -0.4 60
2019-11-15 12:00:00 7.2 11 Sudoeste 19 Sudoeste 0 920.6 0.6 67
2019-11-15 11:00:00 5.7 12 Sudoeste 19 Oeste 0 920.7 1.3 75
2019-11-15 10:00:00 4.6 10 Sudoeste 20 Sudoeste 0 920.3 1.4 77
2019-11-15 09:00:00 3.9 10 Sudoeste 19 Oeste 0 920 1.4 80
2019-11-15 08:00:00 3.6 5 Sudoeste 12 Sudoeste 0 919.4 0.9 80
2019-11-15 07:00:00 4.2 8 Sudoeste 13 Sudoeste 0 918.9 0.6 78
2019-11-15 06:00:00 2.8 6 Sur 13 Sur 0 918.6 0.1 86
2019-11-15 05:00:00 2.5 7 Sur 15 Sudeste 0 918.5 0.4 84
2019-11-15 04:00:00 3.5 4 Nordeste 9 Nordeste 0 918.3 0 80
2019-11-15 03:00:00 3.8 4 Este 19 Noroeste 0 918.5 0.4 82
2019-11-15 02:00:00 4.7 10 Noroeste 20 Noroeste 0 918.1 0.5 73
2019-11-15 01:00:00 4.7 5 Noroeste 17 Oeste 0 918.3 1.3 77
2019-11-15 00:00:00 4.5 9 Sudoeste 19 Oeste 0 918.1 1.5 82
2019-11-14 23:00:00 4.5 4 Oeste 17 Noroeste 0 917.6 1 86
2019-11-14 22:00:00 4.5 4 Noroeste 15 Oeste 0 917 1.9 82
2019-11-14 21:00:00 3.5 7 Oeste 26 Norte 0 916.6 1.3 93
2019-11-14 20:00:00 3.6 13 Noroeste 44 Sudoeste 0 916.6 1.1 89
2019-11-14 19:00:00 5.3 19 Sudoeste 36 Oeste 0 915.1 -0.4 83
2019-11-14 18:00:00 5.1 11 Sudoeste 54 Oeste 0 915.3 -1.3 81
2019-11-14 17:00:00 8 12 Oeste 45 Oeste 0 915.5 -1.9 55
2019-11-14 16:00:00 9.1 20 Oeste 47 Oeste 0 915.5 -2.6 46
2019-11-14 15:00:00 8.3 18 Oeste 44 Sudoeste 0 916.6 -2.6 50
2019-11-14 14:00:00 8.9 18 Oeste 36 Sudoeste 0 917.4 -2.3 50
2019-11-14 13:00:00 8.1 15 Sudoeste 31 Oeste 0 918.1 -1.7 58
2019-11-14 12:00:00 7.3 12 Sudoeste 22 Oeste 0 919.2 -1.6 70
2019-11-14 11:00:00 5.8 4 Noroeste 14 Norte 0 919.7 -0.5 74
2019-11-14 10:00:00 5.3 3 Norte 21 Nordeste 0 919.8 0.8 76
2019-11-14 09:00:00 5.2 8 Norte 28 Norte 0 920.8 1.5 77
2019-11-14 08:00:00 6.4 8 Noroeste 41 Sudoeste 0 920.2 0 92
2019-11-14 07:00:00 6.7 21 Sudoeste 40 Sudoeste 0 919 -2.7 88
2019-11-14 06:00:00 7.5 20 Sudoeste 35 Sudoeste 0 919.3 -3.2 85
2019-11-14 05:00:00 7.9 19 Sudoeste 33 Sudoeste 0 920.2 -3 82
2019-11-14 04:00:00 8.1 10 Sudoeste 25 Sudoeste 0 921.7 -2.3 87
2019-11-14 03:00:00 8.5 15 Sudoeste 30 Sudoeste 0 922.5 -1.9 89
2019-11-14 02:00:00 8.7 13 Sudoeste 24 Sudoeste 0 923.2 -2.3 88
2019-11-14 01:00:00 9 11 Sudoeste 21 Oeste 0 924 -2.4 84
2019-11-14 00:00:00 7.8 4 Sur 9 Sudoeste 0 924.4 -2.3 82
2019-11-13 23:00:00 8.5 6 Sudoeste 10 Sudoeste 0 925.5 -1.5 77
2019-11-13 22:00:00 9.8 6 Sudoeste 13 Sudoeste 0 926.4 -1.8 68
2019-11-13 21:00:00 11.3 8 Sur 15 Sur 0 926.7 -1 62
2019-11-13 20:00:00 11.7 7 Sur 11 Sudeste 0 927 -0.5 62
2019-11-13 19:00:00 13.4 0 Calma 10 Sur 0 928.2 0.9 57
2019-11-13 18:00:00 15.7 4 Sudeste 9 Norte 0 927.7 0.4 50
2019-11-13 17:00:00 16.5 4 Norte 17 Norte 0 927.5 0.4 43
2019-11-13 16:00:00 17.1 10 Norte 17 Noroeste 0 927.3 -0.1 41
2019-11-13 15:00:00 17.5 5 Nordeste 14 Nordeste 0 927.3 -0.1 40
2019-11-13 14:00:00 17 6 Nordeste 22 Norte 0 927.1 0.5 41
2019-11-13 13:00:00 16.4 7 Este 24 Nordeste 0 927.4 1.9 47
2019-11-13 12:00:00 14.2 8 Norte 21 Norte 0 927.4 3.9 58
2019-11-13 11:00:00 13.2 7 Norte 21 Nordeste 0 926.6 4.4 65
2019-11-13 10:00:00 11.3 7 Nordeste 34 Sudoeste 0 925.5 3.8 92
2019-11-13 09:00:00 10.5 16 Sudoeste 28 Sudoeste 0 923.5 2.2 97
2019-11-13 08:00:00 10.2 12 Sudoeste 30 Sudoeste 0 922.2 0.7 97
2019-11-13 07:00:00 10.4 14 Sudoeste 27 Sudoeste 0 921.7 -0.3 96
2019-11-13 06:00:00 9.9 16 Sudoeste 36 Oeste 0 921.3 -1.2 97
2019-11-13 05:00:00 9.6 17 Sudoeste 34 Sudoeste 0 921.5 -1.8 98
2019-11-13 04:00:00 9.3 19 Sudoeste 34 Oeste 0 922 -2.2 98
2019-11-13 03:00:00 9.2 18 Sudoeste 36 Sudoeste 0 922.5 -2.7 96
2019-11-13 02:00:00 9 19 Sudoeste 41 Oeste 0 923.3 -3 92
2019-11-13 01:00:00 8.3 15 Sudoeste 28 Sudoeste 0 924.2 -2.4 89
2019-11-13 00:00:00 8.1 15 Sudoeste 28 Sudoeste 0 925.2 -2 90
2019-11-12 23:00:00 8.7 12 Sudoeste 25 Sudoeste 0 926.3 -1.6 86
2019-11-12 22:00:00 9 12 Sudoeste 23 Sudoeste 0 926.6 -1.4 81
2019-11-12 21:00:00 9.1 12 Sudoeste 18 Sudoeste 0 927.2 -0.8 76
2019-11-12 20:00:00 9.5 7 Sudoeste 16 Sudoeste 0 927.9 -0.6 59
2019-11-12 19:00:00 9.8 7 Sur 16 Oeste 0 928 -1 58
2019-11-12 18:00:00 10.9 4 Oeste 12 Noroeste 0 928 -1.5 50
2019-11-12 17:00:00 11.5 5 Oeste 15 Norte 0 928.5 -1.4 49
2019-11-12 16:00:00 12.3 8 Norte 19 Oeste 0 929 -1.9 46
2019-11-12 15:00:00 12.7 8 Norte 26 Noroeste 0 929.5 -1.9 44
2019-11-12 14:00:00 11.9 14 Noroeste 25 Norte 0 929.9 -2.3 47
2019-11-12 13:00:00 11.5 12 Noroeste 23 Noroeste 0 930.9 -1.6 47
2019-11-12 12:00:00 10.6 5 Noroeste 18 Nordeste 0 931.4 -0.7 50
2019-11-12 11:00:00 8.4 8 Nordeste 17 Nordeste 0 932.2 0.8 63
2019-11-12 10:00:00 6.2 3 Este 5 Nordeste 0 932.5 1.1 70
2019-11-12 09:00:00 3.2 2 Oeste 9 Noroeste 0 932.1 0.5 85
2019-11-12 08:00:00 2.5 3 Este 8 Este 0 931.4 -0.4 82
2019-11-12 07:00:00 3.3 2 Norte 6 Este 0 931.4 -0.5 82
2019-11-12 06:00:00 3.9 2 Norte 8 Este 0 931.6 -0.7 80
2019-11-12 05:00:00 4 3 Nordeste 10 Nordeste 0 931.8 -1 79
2019-11-12 04:00:00 3.8 2 Nordeste 9 Este 0 931.9 -1 82
2019-11-12 03:00:00 3.5 3 Sur 6 Norte 0 932.3 -0.7 83
2019-11-12 02:00:00 3.5 5 Nordeste 9 Nordeste 0 932.8 -0.3 81
2019-11-12 01:00:00 3.9 5 Sudeste 9 Norte 0 932.9 -0.1 80
2019-11-12 00:00:00 4.9 6 Este 12 Norte 0 933 0.4 75
2019-11-11 23:00:00 6.4 6 Nordeste 13 Nordeste 0 933.1 0.8 70
2019-11-11 22:00:00 6.8 5 Sudeste 14 Norte 0 933 0.8 70
2019-11-11 21:00:00 8 5 Nordeste 28 Nordeste 0 932.6 0.8 65
2019-11-11 20:00:00 8.8 8 Nordeste 23 Este 0 932.3 1.1 62
2019-11-11 19:00:00 9.7 10 Este 23 Nordeste 0 932.2 1.4 64
2019-11-11 18:00:00 10.3 7 Nordeste 14 Nordeste 0 931.8 1.1 69
2019-11-11 17:00:00 10.8 7 Nordeste 13 Nordeste 0 931.2 0.4 70
2019-11-11 16:00:00 11.7 2 Oeste 8 Sur 0 930.8 -0.7 66
2019-11-11 15:00:00 11 4 Sudoeste 12 Oeste 0 930.7 -1.2 66
2019-11-11 14:00:00 10.1 4 Sudoeste 12 Sudoeste 0 930.8 -1.8 68
2019-11-11 13:00:00 8.9 6 Sudoeste 13 Oeste 0 931.5 -0.8 72
2019-11-11 12:00:00 7.5 6 Sudoeste 13 Sudoeste 0 931.9 -0.9 77
2019-11-11 11:00:00 6.4 9 Sudoeste 15 Sudoeste 0 932.6 0.1 80
2019-11-11 10:00:00 6 7 Sudoeste 14 Sudoeste 0 932.3 -0.2 80
2019-11-11 09:00:00 5.1 4 Sudoeste 11 Sudoeste 0 932.8 0.2 82
2019-11-11 08:00:00 4.9 8 Sudoeste 12 Sudoeste 0 932.5 -0.1 79
2019-11-11 07:00:00 4.4 3 Sur 6 Sur 0 932.5 -0.5 86
2019-11-11 06:00:00 3.9 4 Sur 8 Sur 0 932.6 -0.1 86
2019-11-11 05:00:00 3.3 5 Sur 7 Sur 0 932.6 -0.7 88
2019-11-11 04:00:00 3.2 4 Sudoeste 9 Nordeste 0 933 -0.7 87
2019-11-11 03:00:00 3.2 3 Este 10 Sudeste 0 932.7 -0.6 86
2019-11-11 02:00:00 2.8 5 Sudeste 9 Este 0 933.3 -0.4 88
2019-11-11 01:00:00 1.8 3 Sudeste 8 Este 0 933.7 0.6 91
2019-11-11 00:00:00 1.7 3 Sudeste 9 Sur 0 933.3 0 91
2019-11-10 23:00:00 2.2 3 Sudeste 8 Este 0 933.7 0.4 90
2019-11-10 22:00:00 2.8 4 Este 14 Noroeste 0 933.1 0.4 88
2019-11-10 21:00:00 3.2 4 Sudeste 10 Sudeste 0 933.3 1.1 88
2019-11-10 20:00:00 3.5 9 Sur 12 Sur 0 933.3 1.6 88
2019-11-10 19:00:00 4.4 3 Sudeste 8 Sur 0 932.7 1.7 88
2019-11-10 18:00:00 4.8 3 Norte 40 Nordeste 0 932.2 1.2 87
2019-11-10 17:00:00 8 18 Noroeste 34 Noroeste 0 931.7 0.7 66
2019-11-10 16:00:00 8.8 8 Norte 27 Norte 0 931 -0.8 61
2019-11-10 15:00:00 8.9 15 Noroeste 43 Noroeste 0 931 -1.2 58
2019-11-10 14:00:00 9.5 17 Noroeste 33 Noroeste 0 931 -1.6 52
2019-11-10 13:00:00 9.2 16 Noroeste 29 Noroeste 0 931.8 -0.6 52
2019-11-10 12:00:00 9 9 Norte 30 Noroeste 0 932.2 -0.7 53
2019-11-10 11:00:00 8.4 10 Norte 32 Noroeste 0 932.6 0.2 54
2019-11-10 10:00:00 7.2 8 Norte 27 Noroeste 0 932.4 0.3 60
2019-11-10 09:00:00 5.7 7 Norte 24 Norte 0 932.9 1.2 64
2019-11-10 08:00:00 4.1 5 Norte 16 Nordeste 0 932.4 0.9 72
2019-11-10 07:00:00 4.8 6 Nordeste 33 Noroeste 0 932.1 0.7 71
2019-11-10 06:00:00 5.4 9 Norte 28 Norte 0 931.7 0.2 70
2019-11-10 05:00:00 6 6 Nordeste 22 Noroeste 0 931.5 0.4 74
2019-11-10 04:00:00 6.5 5 Noroeste 30 Noroeste 0 931.4 0.5 73
2019-11-10 03:00:00 7.8 11 Norte 37 Noroeste 0 931.5 0.5 67
2019-11-10 02:00:00 7.8 5 Noroeste 21 Norte 0 931.1 -0.1 75
2019-11-10 01:00:00 7.4 6 Sudoeste 14 Sudoeste 0 930.9 -0.3 90
2019-11-10 00:00:00 7.2 10 Sudoeste 24 Sudoeste 0 931 -0.6 95
2019-11-09 23:00:00 7.2 8 Sudoeste 16 Oeste 0 931.2 -1.1 94
2019-11-09 22:00:00 7.3 9 Oeste 19 Sudoeste 0 931.2 -1.2 92
2019-11-09 21:00:00 7.1 10 Oeste 23 Oeste 0 931.6 -1.4 92
2019-11-09 20:00:00 6.9 12 Sudoeste 24 Sudoeste 0 932.3 -0.4 92
2019-11-09 19:00:00 6.8 11 Sudoeste 31 Sudoeste 0 932.4 -0.3 88
2019-11-09 18:00:00 6.9 18 Sudoeste 34 Oeste 0 933 -0.3 84
2019-11-09 17:00:00 9.7 19 Sudoeste 35 Sudoeste 0 932.7 -1.2 58
2019-11-09 16:00:00 10.2 17 Sudoeste 29 Sudoeste 0 932.7 -2.1 53
2019-11-09 15:00:00 10.4 10 Sudoeste 28 Oeste 0 933.3 -2.3 57
2019-11-09 14:00:00 10.7 10 Oeste 26 Oeste 0 933.9 -2.1 55
2019-11-09 13:00:00 10 10 Oeste 25 Oeste 0 934.8 -1.3 55
2019-11-09 12:00:00 9.8 10 Sudoeste 22 Oeste 0 935.6 -0.4 55
2019-11-09 11:00:00 7.8 12 Sudoeste 22 Sudoeste 0 936 0.4 64
2019-11-09 10:00:00 7.4 9 Sudoeste 15 Oeste 0 936.1 0.1 67
2019-11-09 09:00:00 5 6 Sur 12 Sudoeste 0 936 0.1 78
2019-11-09 08:00:00 4.1 5 Sur 10 Sur 0 935.6 0.2 79
2019-11-09 07:00:00 4.4 5 Sur 9 Sudoeste 0 936 0.8 79
2019-11-09 06:00:00 4.2 5 Sur 11 Oeste 0 935.9 0.6 78
2019-11-09 05:00:00 4.4 5 Sudoeste 16 Sudoeste 0 935.4 -0.1 78
2019-11-09 04:00:00 4.2 8 Sudoeste 13 Sudoeste 0 935.2 -0.3 76
2019-11-09 03:00:00 5.3 5 Norte 12 Norte 0 935.3 -0.1 69
2019-11-09 02:00:00 5.5 3 Norte 12 Sur 0 935.5 0.4 65
2019-11-09 01:00:00 6.9 3 Norte 20 Norte 0 935.5 0.8 59
2019-11-09 00:00:00 7.3 5 Norte 19 Norte 0 935.4 1.3 57
2019-11-08 23:00:00 7.7 8 Noroeste 18 Noroeste 0 935.1 1.6 59
2019-11-08 22:00:00 8.3 8 Oeste 19 Oeste 0 934.7 1.9 60
2019-11-08 21:00:00 8.7 10 Sudoeste 35 Noroeste 0 934.1 1.8 58
2019-11-08 20:00:00 9.8 11 Noroeste 26 Noroeste 0 933.5 1.8 45
2019-11-08 19:00:00 10 13 Noroeste 23 Oeste 0 932.8 1.8 46
2019-11-08 18:00:00 10.4 11 Oeste 31 Sudoeste 0 932.3 1.4 44
2019-11-08 17:00:00 10.9 15 Noroeste 33 Noroeste 0 931.7 1.4 43
2019-11-08 16:00:00 11.1 12 Noroeste 41 Noroeste 0 931 0.6 43
2019-11-08 15:00:00 11.3 18 Noroeste 40 Norte 0 930.9 0 38
2019-11-08 14:00:00 11.3 17 Noroeste 30 Noroeste 0 930.3 -0.3 40
2019-11-08 13:00:00 10.5 9 Oeste 26 Sudoeste 0 930.4 0.2 41
2019-11-08 12:00:00 9.9 7 Oeste 21 Oeste 0 930.9 1.1 50
2019-11-08 11:00:00 8.1 13 Oeste 27 Sudoeste 0 930.6 1.6 58
2019-11-08 10:00:00 6.8 12 Sudoeste 24 Sudoeste 0 930.2 1.9 65
2019-11-08 09:00:00 5.1 8 Sudoeste 20 Sudoeste 0 929.8 1.5 71
2019-11-08 08:00:00 4 11 Sudoeste 18 Sudoeste 0 929 1.3 75
2019-11-08 07:00:00 3.9 10 Sudoeste 19 Sudoeste 0 928.3 0.8 75
2019-11-08 06:00:00 4 10 Sudoeste 15 Sudoeste 0 928.3 0.8 71
2019-11-08 05:00:00 3.7 6 Sudoeste 22 Sur 0 927.7 0.5 73
2019-11-08 04:00:00 4.4 12 Oeste 21 Oeste 0 927.5 0.3 72
2019-11-08 03:00:00 4.4 9 Sudoeste 26 Sudoeste 0 927.5 0.2 74
2019-11-08 02:00:00 4.5 10 Oeste 22 Sudoeste 0 927.2 -0.5 76
2019-11-08 01:00:00 4.5 16 Oeste 24 Sudoeste 0 927.2 -0.4 75
2019-11-08 00:00:00 4.8 13 Sudoeste 27 Sudoeste 0 927.3 -0.3 76